createdAt,value
2023-02-13T00:01:55.463Z,102013.23
2023-02-13T00:04:24.167Z,102013.29
2023-02-13T00:06:54.784Z,102004.88
2023-02-13T00:09:23.402Z,102006.80
2023-02-13T00:11:52.312Z,102009.61
2023-02-13T00:14:21.649Z,102010.28
2023-02-13T00:16:50.760Z,102011.31
2023-02-13T00:19:20.428Z,102009.20
2023-02-13T00:21:49.215Z,102005.52
2023-02-13T00:24:17.854Z,102006.77
2023-02-13T00:26:47.405Z,102010.48
2023-02-13T00:29:16.550Z,102013.11
2023-02-13T00:31:47.790Z,102011.41
2023-02-13T00:34:18.913Z,101999.81
2023-02-13T00:36:47.652Z,101992.36
2023-02-13T00:39:16.630Z,101985.91
2023-02-13T00:41:45.088Z,101980.31
2023-02-13T00:44:13.645Z,101984.38
2023-02-13T00:46:42.467Z,101987.85
2023-02-13T00:49:11.101Z,101991.28
2023-02-13T00:51:39.464Z,102000.14
2023-02-13T00:54:07.892Z,101999.58
2023-02-13T00:56:36.441Z,102005.60
2023-02-13T00:59:05.063Z,102007.59
2023-02-13T01:01:34.101Z,102007.44
2023-02-13T01:04:02.714Z,102008.37
2023-02-13T01:06:31.280Z,102002.36
2023-02-13T01:09:00.037Z,101999.84
2023-02-13T01:11:28.503Z,101994.87
2023-02-13T01:13:57.045Z,101998.23
2023-02-13T01:16:25.624Z,101988.19
2023-02-13T01:18:54.454Z,101981.83
2023-02-13T01:21:24.318Z,101987.39
2023-02-13T01:23:52.760Z,101986.38
2023-02-13T01:26:24.114Z,101984.84
2023-02-13T01:28:55.120Z,101987.16
2023-02-13T01:31:23.730Z,101986.66
2023-02-13T01:33:52.491Z,101987.44
2023-02-13T01:36:21.024Z,101986.67
2023-02-13T01:38:52.962Z,101988.55
2023-02-13T01:41:22.272Z,101984.04
2023-02-13T01:43:53.966Z,101981.48
2023-02-13T01:46:37.521Z,101980.84
2023-02-13T01:49:14.069Z,101983.46
2023-02-13T01:51:43.833Z,101982.05
2023-02-13T01:54:33.718Z,101980.76
2023-02-13T01:57:14.872Z,101976.43
2023-02-13T02:00:00.800Z,101977.05
2023-02-13T02:02:32.373Z,101986.30
2023-02-13T02:05:03.051Z,101982.66
2023-02-13T02:07:32.288Z,101989.82
2023-02-13T02:10:05.823Z,101983.56
2023-02-13T02:12:58.723Z,101979.77
2023-02-13T02:15:27.677Z,101983.94
2023-02-13T02:17:56.159Z,101981.46
2023-02-13T02:20:47.113Z,101978.85
2023-02-13T02:23:27.836Z,101979.25
2023-02-13T02:26:08.369Z,101979.28
2023-02-13T02:28:39.846Z,101980.09
2023-02-13T02:31:56.185Z,101978.61
2023-02-13T02:34:37.550Z,101975.35
2023-02-13T02:37:37.449Z,101978.02
2023-02-13T02:40:29.763Z,101970.85
2023-02-13T02:43:29.383Z,101973.84
2023-02-13T02:46:31.918Z,101976.21
2023-02-13T02:49:32.487Z,101980.88
2023-02-13T02:52:06.810Z,101983.11
2023-02-13T02:55:00.587Z,101986.79
2023-02-13T02:57:51.760Z,101988.27
2023-02-13T03:00:43.316Z,101989.43
2023-02-13T03:03:41.139Z,101991.90
2023-02-13T03:06:32.681Z,101992.55
2023-02-13T03:09:23.326Z,101988.04
2023-02-13T03:12:13.394Z,101992.42
2023-02-13T03:14:42.967Z,101989.14
2023-02-13T03:17:33.685Z,101990.94
2023-02-13T03:20:20.852Z,101985.91
2023-02-13T03:22:55.425Z,101990.23
2023-02-13T03:25:49.552Z,101988.96
2023-02-13T03:28:45.851Z,101985.71
2023-02-13T03:31:29.789Z,101987.90
2023-02-13T03:34:04.188Z,101985.83
2023-02-13T03:37:05.990Z,101979.79
2023-02-13T03:40:00.887Z,101977.27
2023-02-13T03:42:55.420Z,101978.08
2023-02-13T03:45:54.590Z,101973.94
2023-02-13T03:48:51.748Z,101976.39
2023-02-13T03:51:43.629Z,101976.10
2023-02-13T03:54:52.762Z,101979.83
2023-02-13T03:57:42.716Z,101976.83
2023-02-13T04:00:14.880Z,101975.32
2023-02-13T04:03:06.174Z,101974.87
2023-02-13T04:05:41.973Z,101974.87
2023-02-13T04:08:11.191Z,101977.55
2023-02-13T04:10:50.722Z,101978.84
2023-02-13T04:13:35.543Z,101980.61
2023-02-13T04:16:11.924Z,101981.16
2023-02-13T04:18:40.419Z,101981.89
2023-02-13T04:21:08.947Z,101978.84
2023-02-13T04:23:37.447Z,101971.58
2023-02-13T04:26:17.638Z,101967.30
2023-02-13T04:28:46.219Z,101968.39
2023-02-13T04:31:15.808Z,101974.41
2023-02-13T04:33:44.626Z,101975.35
2023-02-13T04:36:12.990Z,101973.95
2023-02-13T04:38:41.418Z,101974.67
2023-02-13T04:41:17.897Z,101976.46
2023-02-13T04:43:46.532Z,101976.38
2023-02-13T04:46:15.269Z,101977.63
2023-02-13T04:48:44.065Z,101975.86
2023-02-13T04:51:12.558Z,101972.95
2023-02-13T04:53:41.147Z,101971.13
2023-02-13T04:56:09.851Z,101976.48
2023-02-13T04:58:38.270Z,101975.41
2023-02-13T05:01:17.576Z,101973.48
2023-02-13T05:03:46.446Z,101979.11
2023-02-13T05:06:15.232Z,101975.33
2023-02-13T05:08:43.737Z,101970.35
2023-02-13T05:11:12.252Z,101968.88
2023-02-13T05:13:40.883Z,101968.14
2023-02-13T05:16:09.421Z,101969.98
2023-02-13T05:18:38.113Z,101970.81
2023-02-13T05:21:25.042Z,101973.36
2023-02-13T05:23:53.610Z,101971.58
2023-02-13T05:26:22.039Z,101973.91
2023-02-13T05:29:09.052Z,101975.20
2023-02-13T05:31:37.515Z,101974.16
2023-02-13T05:34:06.097Z,101977.41
2023-02-13T05:36:34.741Z,101978.68
2023-02-13T05:39:03.642Z,101976.89
2023-02-13T05:41:32.186Z,101981.52
2023-02-13T05:44:00.918Z,101986.33
2023-02-13T05:46:29.553Z,101985.16
2023-02-13T05:48:58.082Z,101984.69
2023-02-13T05:51:26.698Z,101987.52
2023-02-13T05:53:55.205Z,101992.45
2023-02-13T05:56:23.780Z,101993.04
2023-02-13T05:58:54.149Z,101997.46
2023-02-13T06:01:24.087Z,102002.23
2023-02-13T06:03:52.892Z,102000.02
2023-02-13T06:06:23.068Z,102002.14
2023-02-13T06:08:51.961Z,102003.89
2023-02-13T06:11:21.210Z,102004.09
2023-02-13T06:13:49.616Z,102006.20
2023-02-13T06:16:18.220Z,101997.46
2023-02-13T06:18:46.648Z,101998.33
2023-02-13T06:21:15.576Z,101996.69
2023-02-13T06:23:44.060Z,101996.23
2023-02-13T06:26:12.922Z,101993.09
2023-02-13T06:28:41.451Z,101992.92
2023-02-13T06:31:10.373Z,101990.70
2023-02-13T06:33:38.797Z,101994.50
2023-02-13T06:36:08.246Z,102000.58
2023-02-13T06:38:36.864Z,102005.34
2023-02-13T06:41:06.376Z,102005.41
2023-02-13T06:43:34.880Z,102003.11
2023-02-13T06:46:07.430Z,102000.52
2023-02-13T06:48:36.011Z,102002.55
2023-02-13T06:51:04.674Z,102008.10
2023-02-13T06:53:33.826Z,102009.86
2023-02-13T06:56:06.496Z,102008.69
2023-02-13T06:58:35.151Z,102009.76
2023-02-13T07:01:06.307Z,102012.35
2023-02-13T07:03:34.884Z,102014.38
2023-02-13T07:06:03.443Z,102013.77
2023-02-13T07:08:32.039Z,102012.13
2023-02-13T07:11:00.761Z,102007.70
2023-02-13T07:13:29.378Z,102006.46
2023-02-13T07:16:02.116Z,102001.21
2023-02-13T07:18:32.600Z,101996.52
2023-02-13T07:21:02.490Z,101989.32
2023-02-13T07:23:31.681Z,101991.18
2023-02-13T07:26:02.278Z,101998.63
2023-02-13T07:28:32.760Z,101998.70
2023-02-13T07:31:06.440Z,101999.61
2023-02-13T07:33:36.861Z,101992.91
2023-02-13T07:36:06.586Z,101990.90
2023-02-13T07:38:36.115Z,101990.88
2023-02-13T07:41:05.320Z,101994.89
2023-02-13T07:43:38.705Z,102001.05
2023-02-13T07:46:07.571Z,102009.14
2023-02-13T07:52:58.044Z,102013.20
2023-02-13T07:55:31.623Z,102008.85
2023-02-13T07:58:04.205Z,102006.34
2023-02-13T08:00:33.075Z,102004.91
2023-02-13T08:03:05.449Z,102004.80
2023-02-13T08:05:35.225Z,102005.70
2023-02-13T08:08:04.461Z,102005.89
2023-02-13T08:10:51.635Z,102002.63
2023-02-13T08:13:20.265Z,102005.23
2023-02-13T08:15:49.186Z,102003.27
2023-02-13T08:18:19.709Z,102000.95
2023-02-13T08:20:48.857Z,102001.66
2023-02-13T08:23:17.493Z,101994.89
2023-02-13T08:25:47.980Z,101994.73
2023-02-13T08:28:17.628Z,101990.98
2023-02-13T08:30:46.299Z,101988.84
2023-02-13T08:33:14.705Z,101983.05
2023-02-13T08:35:43.461Z,101983.59
2023-02-13T08:38:12.524Z,101985.61
2023-02-13T08:40:41.093Z,101989.41
2023-02-13T08:43:09.561Z,101986.58
2023-02-13T08:45:38.714Z,101981.05
2023-02-13T08:48:07.948Z,101981.02
2023-02-13T08:50:37.532Z,101985.20
2023-02-13T08:53:06.789Z,101984.36
2023-02-13T08:55:35.293Z,101981.02
2023-02-13T08:58:05.281Z,101977.05
2023-02-13T09:00:34.258Z,101975.41
2023-02-13T09:03:04.739Z,101975.37
2023-02-13T09:05:35.603Z,101971.31
2023-02-13T09:08:06.146Z,101969.58
2023-02-13T09:10:37.542Z,101965.92
2023-02-13T09:13:08.080Z,101968.26
2023-02-13T09:15:41.736Z,101969.45
2023-02-13T09:18:11.771Z,101971.29
2023-02-13T09:20:43.065Z,101972.80
2023-02-13T09:23:12.569Z,101975.89
2023-02-13T09:25:42.303Z,101974.57
2023-02-13T09:28:13.969Z,101980.56
2023-02-13T09:30:44.208Z,101985.83
2023-02-13T09:33:13.324Z,101979.79
2023-02-13T09:35:42.652Z,101978.39
2023-02-13T09:38:11.581Z,101979.77
2023-02-13T09:40:53.875Z,101979.19
2023-02-13T09:43:29.580Z,101983.88
2023-02-13T09:46:05.549Z,101977.87
2023-02-13T09:48:39.928Z,101974.77
2023-02-13T09:51:16.528Z,101968.65
2023-02-13T09:53:56.094Z,101978.92
2023-02-13T09:56:38.753Z,101980.46
2023-02-13T09:59:15.812Z,101982.16
2023-02-13T10:01:51.585Z,101976.35
2023-02-13T10:04:30.894Z,101972.33
2023-02-13T10:07:20.959Z,101975.40
2023-02-13T10:09:54.646Z,101978.93
2023-02-13T10:12:28.939Z,101981.52
2023-02-13T10:15:17.956Z,101985.38
2023-02-13T10:18:00.106Z,101985.52
2023-02-13T10:20:43.893Z,101992.33
2023-02-13T10:23:31.143Z,101992.18
2023-02-13T10:26:06.758Z,101996.05
2023-02-13T10:28:41.169Z,101995.17
2023-02-13T10:31:18.495Z,101997.45
2023-02-13T10:33:55.459Z,101991.83
2023-02-13T10:36:41.975Z,101985.47
2023-02-13T10:39:32.250Z,101985.96
2023-02-13T10:42:16.726Z,101981.94
2023-02-13T10:45:15.531Z,101977.35
2023-02-13T10:48:01.593Z,101972.36
2023-02-13T10:50:57.556Z,101968.44
2023-02-13T10:53:56.087Z,101960.70
2023-02-13T10:56:31.985Z,101957.04
2023-02-13T10:59:29.753Z,101952.23
2023-02-13T11:02:27.408Z,101953.44
2023-02-13T11:05:03.356Z,101959.09
2023-02-13T11:07:32.774Z,101955.01
2023-02-13T11:10:17.990Z,101949.09
2023-02-13T11:12:47.626Z,101949.98
2023-02-13T11:15:24.626Z,101951.16
2023-02-13T11:17:59.826Z,101948.98
2023-02-13T11:20:46.980Z,101949.21
2023-02-13T11:23:24.921Z,101941.01
2023-02-13T11:26:05.450Z,101944.80
2023-02-13T11:29:02.348Z,101947.55
2023-02-13T11:31:45.482Z,101945.14
2023-02-13T11:34:30.205Z,101942.77
2023-02-13T11:37:20.568Z,101941.97
2023-02-13T11:39:52.660Z,101941.65
2023-02-13T11:42:28.901Z,101937.95
2023-02-13T11:45:08.134Z,101931.84
2023-02-13T11:47:45.720Z,101926.35
2023-02-13T11:50:33.294Z,101924.33
2023-02-13T11:53:07.885Z,101917.14
2023-02-13T11:55:42.934Z,101912.09
2023-02-13T11:58:11.544Z,101908.98
2023-02-13T12:00:41.827Z,101910.30
2023-02-13T12:03:29.585Z,101912.27
2023-02-13T12:06:18.680Z,101908.58
2023-02-13T12:08:50.758Z,101903.84
2023-02-13T12:11:29.964Z,101903.67
2023-02-13T12:13:59.018Z,101896.58
2023-02-13T12:17:03.818Z,101893.38
2023-02-13T12:19:47.261Z,101885.63
2023-02-13T12:22:50.004Z,101880.90
2023-02-13T12:25:24.827Z,101877.33
2023-02-13T12:28:40.293Z,101877.41
2023-02-13T12:31:40.603Z,101875.46
2023-02-13T12:34:34.038Z,101871.08
2023-02-13T12:37:33.747Z,101872.34
2023-02-13T12:40:21.090Z,101875.62
2023-02-13T12:43:14.882Z,101875.67
2023-02-13T12:45:54.607Z,101877.63
2023-02-13T12:48:45.067Z,101870.97
2023-02-13T12:51:26.197Z,101868.31
2023-02-13T12:54:27.437Z,101864.64
2023-02-13T12:57:14.572Z,101862.54
2023-02-13T13:00:01.846Z,101861.84
2023-02-13T13:02:49.224Z,101848.11
2023-02-13T13:06:10.964Z,101846.48
2023-02-13T13:08:59.105Z,101846.98
2023-02-13T13:11:43.219Z,101841.58
2023-02-13T13:14:39.198Z,101826.62
2023-02-13T13:17:26.828Z,101822.48
2023-02-13T13:20:35.848Z,101823.52
2023-02-13T13:23:15.324Z,101821.92
2023-02-13T13:25:59.648Z,101817.77
2023-02-13T13:28:39.924Z,101813.35
2023-02-13T13:31:11.157Z,101815.32
2023-02-13T13:33:44.489Z,101818.19
2023-02-13T13:36:31.314Z,101824.04
2023-02-13T13:39:06.148Z,101815.88
2023-02-13T13:42:14.531Z,101822.25
2023-02-13T13:45:08.302Z,101818.91
2023-02-13T13:47:45.159Z,101817.85
2023-02-13T13:50:26.569Z,101820.79
2023-02-13T13:53:22.390Z,101822.89
2023-02-13T13:56:01.667Z,101828.00
2023-02-13T13:58:51.337Z,101826.88
2023-02-13T14:01:23.861Z,101825.69
2023-02-13T14:04:01.708Z,101811.57
2023-02-13T14:06:48.879Z,101808.52
2023-02-13T14:09:27.859Z,101811.73
2023-02-13T14:11:59.081Z,101809.36
2023-02-13T14:14:27.928Z,101812.42
2023-02-13T14:17:08.500Z,101813.83
2023-02-13T14:19:40.719Z,101811.66
2023-02-13T14:22:28.397Z,101814.11
2023-02-13T14:25:08.159Z,101805.83
2023-02-13T14:27:43.650Z,101792.36
2023-02-13T14:30:34.416Z,101792.55
2023-02-13T14:33:09.058Z,101794.95
2023-02-13T14:35:39.084Z,101795.00
2023-02-13T14:38:24.033Z,101789.71
2023-02-13T14:40:54.236Z,101795.88
2023-02-13T14:43:38.077Z,101801.41
2023-02-13T14:46:12.616Z,101801.86
2023-02-13T14:48:53.927Z,101801.03
2023-02-13T14:51:31.197Z,101801.11
2023-02-13T14:54:10.375Z,101795.60
2023-02-13T14:56:39.603Z,101794.84
2023-02-13T14:59:16.173Z,101794.02
2023-02-13T15:01:52.729Z,101796.09
2023-02-13T15:04:34.436Z,101791.38
2023-02-13T15:07:05.825Z,101791.58
2023-02-13T15:09:41.133Z,101786.23
2023-02-13T15:12:34.336Z,101788.45
2023-02-13T15:15:22.742Z,101790.09
2023-02-13T15:17:54.812Z,101787.12
2023-02-13T15:20:34.770Z,101782.15
2023-02-13T15:23:07.092Z,101781.14
2023-02-13T15:25:38.499Z,101777.08
2023-02-13T15:28:17.839Z,101773.10
2023-02-13T15:31:01.832Z,101760.59
2023-02-13T15:33:46.766Z,101753.77
2023-02-13T15:36:19.628Z,101755.14
2023-02-13T15:38:48.755Z,101752.16
2023-02-13T15:41:22.062Z,101741.56
2023-02-13T15:43:56.960Z,101738.91
2023-02-13T15:46:27.283Z,101738.24
2023-02-13T15:48:59.212Z,101741.78
2023-02-13T15:51:31.769Z,101750.33
2023-02-13T15:54:06.169Z,101751.88
2023-02-13T15:56:35.981Z,101753.61
2023-02-13T15:59:04.577Z,101761.92
2023-02-13T16:01:35.704Z,101778.56
2023-02-13T16:04:07.781Z,101779.09
2023-02-13T16:06:36.856Z,101769.58
2023-02-13T16:09:06.454Z,101780.23
2023-02-13T16:11:41.561Z,101782.36
2023-02-13T16:14:18.760Z,101777.70
2023-02-13T16:16:55.774Z,101779.67
2023-02-13T16:19:30.434Z,101777.58
2023-02-13T16:22:03.902Z,101774.52
2023-02-13T16:24:32.666Z,101773.54
2023-02-13T16:27:01.639Z,101769.77
2023-02-13T16:29:30.603Z,101774.58
2023-02-13T16:32:07.955Z,101770.91
2023-02-13T16:34:38.844Z,101774.98
2023-02-13T16:37:33.739Z,101783.15
2023-02-13T16:40:42.456Z,101785.81
2023-02-13T16:43:42.151Z,101787.87
2023-02-13T16:46:37.233Z,101786.05
2023-02-13T16:49:12.410Z,101780.98
2023-02-13T16:51:42.891Z,101785.36
2023-02-13T16:54:11.384Z,101785.65
2023-02-13T16:56:55.120Z,101790.36
2023-02-13T16:59:28.970Z,101793.39
2023-02-13T17:02:41.136Z,101794.30
2023-02-13T17:05:09.891Z,101794.40
2023-02-13T17:07:54.856Z,101794.01
2023-02-13T17:10:31.322Z,101792.16
2023-02-13T17:13:13.557Z,101788.23
2023-02-13T17:15:46.835Z,101799.45
2023-02-13T17:18:15.712Z,101804.38
2023-02-13T17:20:45.728Z,101792.23
2023-02-13T17:23:21.464Z,101794.52
2023-02-13T17:25:52.349Z,101798.73
2023-02-13T17:28:27.348Z,101796.40
2023-02-13T17:30:59.120Z,101791.02
2023-02-13T17:33:31.044Z,101774.52
2023-02-13T17:35:59.673Z,101778.02
2023-02-13T17:38:28.532Z,101786.52
2023-02-13T17:42:13.010Z,101787.80
2023-02-13T17:44:41.687Z,101788.48
2023-02-13T17:47:10.296Z,101781.86
2023-02-13T17:49:48.188Z,101789.94
2023-02-13T17:52:29.199Z,101799.52
2023-02-13T17:54:57.888Z,101801.33
2023-02-13T17:57:26.418Z,101800.23
2023-02-13T17:59:55.838Z,101808.11
2023-02-13T18:02:28.196Z,101817.80
2023-02-13T18:04:56.983Z,101817.82
2023-02-13T18:07:25.660Z,101815.06
2023-02-13T18:09:54.358Z,101815.91
2023-02-13T18:12:25.363Z,101823.14
2023-02-13T18:14:54.326Z,101826.73
2023-02-13T18:17:22.792Z,101825.11
2023-02-13T18:19:51.275Z,101832.64
2023-02-13T18:22:19.978Z,101838.29
2023-02-13T18:24:48.902Z,101838.45
2023-02-13T18:27:18.347Z,101841.35
2023-02-13T18:29:46.948Z,101837.47
2023-02-13T18:32:15.624Z,101836.32
2023-02-13T18:34:44.352Z,101832.80
2023-02-13T18:37:14.126Z,101830.84
2023-02-13T18:39:42.698Z,101839.64
2023-02-13T18:42:13.557Z,101844.91
2023-02-13T18:44:42.267Z,101840.31
2023-02-13T18:47:10.858Z,101833.87
2023-02-13T18:49:39.391Z,101830.25
2023-02-13T18:52:08.014Z,101834.55
2023-02-13T18:54:39.678Z,101841.45
2023-02-13T18:57:08.252Z,101843.59
2023-02-13T18:59:36.790Z,101832.48
2023-02-13T19:02:05.874Z,101827.83
2023-02-13T19:04:36.225Z,101838.05
2023-02-13T19:07:11.976Z,101846.11
2023-02-13T19:09:42.342Z,101846.79
2023-02-13T19:12:11.295Z,101847.49
2023-02-13T19:14:40.674Z,101846.42
2023-02-13T19:17:10.623Z,101844.44
2023-02-13T19:19:39.771Z,101845.88
2023-02-13T19:22:12.488Z,101844.00
2023-02-13T19:24:41.959Z,101851.03
2023-02-13T19:27:11.842Z,101851.89
2023-02-13T19:29:42.203Z,101853.13
2023-02-13T19:32:11.283Z,101855.11
2023-02-13T19:34:41.337Z,101852.07
2023-02-13T19:37:10.638Z,101855.08
2023-02-13T19:39:42.489Z,101853.38
2023-02-13T19:46:52.012Z,101877.66
2023-02-13T19:49:23.828Z,101877.89
2023-02-13T19:51:53.636Z,101874.70
2023-02-13T19:54:26.315Z,101874.95
2023-02-13T19:57:00.568Z,101875.41
2023-02-13T19:59:29.717Z,101881.64
2023-02-13T20:02:16.617Z,101882.85
2023-02-13T20:05:02.355Z,101879.89
2023-02-13T20:07:36.419Z,101875.37
2023-02-13T20:10:30.839Z,101873.17
2023-02-13T20:13:00.240Z,101871.13
2023-02-13T20:15:50.170Z,101869.82
2023-02-13T20:18:25.060Z,101875.77
2023-02-13T20:20:56.776Z,101878.86
2023-02-13T20:23:26.682Z,101879.37
2023-02-13T20:26:08.094Z,101875.11
2023-02-13T20:32:16.818Z,101875.17
2023-02-13T20:35:08.383Z,101869.84
2023-02-13T20:37:59.147Z,101874.25
2023-02-13T20:40:50.064Z,101870.08
2023-02-13T20:44:09.716Z,101869.95
2023-02-13T20:46:39.984Z,101867.39
2023-02-13T20:49:13.787Z,101864.63
2023-02-13T20:52:04.897Z,101864.15
2023-02-13T20:54:39.217Z,101857.41
2023-02-13T20:57:08.539Z,101856.20
2023-02-13T20:59:44.440Z,101855.98
2023-02-13T21:02:24.980Z,101855.19
2023-02-13T21:04:55.831Z,101851.38
2023-02-13T21:07:31.738Z,101852.44
2023-02-13T21:10:09.187Z,101851.55
2023-02-13T21:12:47.970Z,101852.48
2023-02-13T21:15:20.726Z,101851.62
2023-02-13T21:17:59.491Z,101853.92
2023-02-13T21:20:31.745Z,101849.46
2023-02-13T21:23:03.780Z,101852.70
2023-02-13T21:25:34.473Z,101851.17
2023-02-13T21:28:03.366Z,101847.94
2023-02-13T21:30:32.559Z,101845.73
2023-02-13T21:33:02.815Z,101849.56
2023-02-13T21:35:31.946Z,101848.64
2023-02-13T21:38:01.355Z,101850.98
2023-02-13T21:40:36.443Z,101849.39
2023-02-13T21:43:06.180Z,101851.97
2023-02-13T21:45:39.034Z,101852.79
2023-02-13T21:48:09.246Z,101855.03
2023-02-13T21:50:41.853Z,101852.05
2023-02-13T21:53:11.614Z,101848.88
2023-02-13T21:55:43.738Z,101848.84
2023-02-13T21:58:13.560Z,101847.60
2023-02-13T22:00:43.521Z,101841.27
2023-02-13T22:03:14.367Z,101838.23
2023-02-13T22:05:48.615Z,101836.60
2023-02-13T22:08:23.797Z,101836.36
2023-02-13T22:11:00.173Z,101841.85
2023-02-13T22:13:34.494Z,101843.39
2023-02-13T22:16:20.137Z,101836.38
2023-02-13T22:18:50.926Z,101833.17
2023-02-13T22:21:25.601Z,101834.77
2023-02-13T22:23:58.527Z,101839.20
2023-02-13T22:26:33.252Z,101839.98
2023-02-13T22:29:07.268Z,101839.06
2023-02-13T22:31:42.391Z,101844.70
2023-02-13T22:34:14.460Z,101843.98
2023-02-13T22:36:44.746Z,101846.02
2023-02-13T22:39:14.347Z,101849.08
2023-02-13T22:41:45.976Z,101848.95
2023-02-13T22:44:15.432Z,101851.09
2023-02-13T22:46:45.782Z,101847.40
2023-02-13T22:49:14.354Z,101845.25
2023-02-13T22:51:43.143Z,101844.91
2023-02-13T22:54:12.289Z,101839.96
2023-02-13T22:56:40.758Z,101842.44
2023-02-13T22:59:09.752Z,101838.14
2023-02-13T23:01:38.318Z,101838.24
2023-02-13T23:04:10.359Z,101836.77
2023-02-13T23:06:44.191Z,101833.12
2023-02-13T23:09:13.077Z,101825.88
2023-02-13T23:12:00.272Z,101826.19
2023-02-13T23:14:35.579Z,101838.25
2023-02-13T23:17:36.684Z,101842.34
2023-02-13T23:20:05.887Z,101839.35
2023-02-13T23:22:35.946Z,101840.40
2023-02-13T23:25:06.314Z,101841.34
2023-02-13T23:27:35.910Z,101846.64
2023-02-13T23:30:06.967Z,101846.59
2023-02-13T23:32:35.647Z,101851.66
2023-02-13T23:35:04.807Z,101856.93
2023-02-13T23:37:33.810Z,101857.98
2023-02-13T23:40:03.166Z,101858.39
2023-02-13T23:42:31.962Z,101856.33
2023-02-13T23:45:00.547Z,101846.13
2023-02-13T23:47:30.073Z,101844.06
2023-02-13T23:49:58.769Z,101839.50
2023-02-13T23:52:27.462Z,101837.52
2023-02-13T23:54:55.987Z,101829.97
2023-02-13T23:57:24.597Z,101831.65
2023-02-13T23:59:53.051Z,101838.36
